Latest Coastal Weather Observations for Gold Coast Seaway

IDQ60701

Issued at 11:12 pm EST Saturday 30 April 2016 (issued every 10 minutes, with the page automatically refreshed every 10 minutes)

About coastal observations | Map of coastal stations | Coastal observations for QLD | Marine services | Other Formats
Station Details ID: 040764 Name: GOLD COAST SEAWAY Lat: -27.94 Lon: 153.43 Height: 2.98 m
Data from the previous 72 hours. | See also: Recent months at Gold Coast Seaway
Date/Time
EST
Temp

°C
Wind Pressure Rain
since 9am
mm
Weather Cloud Vis
km
Sea
Height
m
Swell
Dir
 
Speed
knots
Gust
knots
hPa Trend Height
m
Period
s
Dir
30/11:00pm 23.4 N 8 12 1019.7 - 0.2 - - - - - - -
30/10:30pm 23.4 N 12 17 1019.9 - 0.2 - - - - - - -
30/10:00pm 24.0 NNE 11 15 1020.0 - 0.2 - - - - - - -
30/09:30pm 23.9 NNE 8 10 1020.1 - 0.2 - - - - - - -
30/09:00pm 23.6 NNE 9 10 1020.3 - 0.2 - - - - - - -
30/08:30pm 23.8 NE 9 10 1020.1 - 0.2 - - - - - - -
30/08:00pm 23.9 ENE 8 9 1020.0 - 0.2 - - - - - - -
30/07:30pm 23.8 NE 8 9 1019.8 - 0.2 - - - - - - -
30/07:00pm 23.9 NE 9 9 1019.5 - 0.2 - - - - - - -
30/06:30pm 23.9 ENE 8 10 1019.4 - 0.2 - - - - - - -
30/06:00pm 23.9 NE 9 11 1019.3 - 0.2 - - - - - - -
30/05:30pm 23.9 NE 8 10 1019.1 - 0.2 - - - - - - -
30/05:00pm 24.1 NE 9 11 1018.7 - 0.2 - - - - - - -
30/04:30pm 24.6 E 7 9 1018.7 - 0.2 - - - - - - -
30/04:00pm 25.0 ENE 6 7 1018.5 - 0.2 - - - - - - -
30/03:30pm 25.3 ENE 7 8 1018.5 - 0.2 - - - - - - -
30/03:00pm 25.7 ENE 5 6 1018.5 - 0.2 - - - - - - -
30/02:30pm 25.3 ENE 6 7 1018.6 - 0.2 - - - - - - -
30/02:00pm 25.2 E 5 6 1018.7 - 0.2 - - - - - - -
30/01:30pm 26.4 ESE 6 7 1018.8 - 0.2 - - - - - - -
30/01:00pm 25.3 SE 6 7 1019.2 - 0.2 - - - - - - -
30/12:30pm 25.2 SSE 7 8 1019.6 - 0.2 - - - - - - -
30/12:00pm 25.5 SSE 7 8 1019.9 - 0.2 - - - - - - -
30/11:30am 24.3 SSE 6 7 1020.6 - 0.2 - - - - - - -
30/11:00am 25.6 SSE 7 8 1021.1 - 0.2 - - - - - - -
30/10:30am 24.0 SSE 5 6 1021.4 - 0.0 - - - - - - -
30/10:00am 22.9 SSE 6 7 1021.8 - 0.0 - - - - - - -
30/09:30am 22.7 SSE 6 6 1021.9 - 0.0 - - - - - - -
30/09:00am 22.8 SSE 7 9 1021.9 - 7.2 - - - - - - -
30/08:30am 21.7 ESE 7 12 1022.0 - 7.2 - - - - - - -
30/08:00am 21.5 SSW 5 6 1021.8 - 7.2 - - - - - - -
30/07:30am 20.8 SSW 4 5 1021.5 - 7.2 - - - - - - -
30/07:00am 20.4 SW 6 7 1021.3 - 7.2 - - - - - - -
30/06:30am 20.3 SW 5 7 1021.0 - 7.2 - - - - - - -
30/06:00am 20.2 SW 6 8 1020.7 - 7.2 - - - - - - -
30/05:30am 20.3 SSW 5 7 1020.6 - 7.2 - - - - - - -
30/05:00am 20.2 SW 7 8 1020.5 - 7.2 - - - - - - -
30/04:30am 20.3 SSW 3 5 1020.1 - 7.2 - - - - - - -
30/04:00am 20.1 SSW 4 5 1020.3 - 7.2 - - - - - - -
30/03:30am 20.3 SSW 4 5 1020.4 - 7.0 - - - - - - -
30/03:00am 20.3 SSW 5 7 1020.3 - 7.0 Recent precip. - - - - - -
30/02:30am 20.3 WNW 7 8 1020.7 - 6.8 - - - - - - -
30/02:00am 20.5 SSW 6 8 1020.8 - 5.6 - - - - - - -
30/01:30am 20.5 SW 6 9 1021.0 - 3.0 - - - - - - -
30/01:00am 20.5 SW 7 8 1021.2 - 3.0 - - - - - - -
30/12:30am 20.7 SW 5 8 1021.5 - 2.8 - - - - - - -
30/12:00am 21.2 SSW 5 7 1021.8 - 2.8 - - - - - - -
 
Date/Time
EST
Temp

°C
Wind Pressure Rain
since 9am
mm
Weather Cloud Vis
km
Sea
Height
m
Swell
Dir
 
Speed
knots
Gust
knots
hPa Trend Height
m
Period
s
Dir
29/11:30pm 21.3 SSW 6 8 1022.1 - 2.8 - - - - - - -
29/11:00pm 21.3 SW 6 7 1022.4 - 2.8 - - - - - - -
29/10:30pm 21.6 NE 5 7 1022.7 - 2.8 - - - - - - -
29/10:00pm 21.4 SSW 6 8 1022.6 - 2.8 - - - - - - -
29/09:30pm 21.5 S 6 8 1022.7 - 2.8 - - - - - - -
29/09:00pm 22.3 E 8 11 1022.6 - 2.6 Rain - - - - - -
29/08:46pm 22.9 ENE 13 18 1022.7 - 0.2 - - - - - - -
29/08:30pm 23.5 SE 7 8 1022.4 - 0.2 - - - - - - -
29/08:00pm 23.4 SE 7 9 1022.4 - 0.2 - - - - - - -
29/07:30pm 23.5 ESE 8 9 1022.2 - 0.2 - - - - - - -
29/07:00pm 23.3 ESE 9 10 1022.0 - 0.2 - - - - - - -
29/06:30pm 23.2 ESE 10 11 1021.6 - 0.2 - - - - - - -
29/06:00pm 23.1 ESE 10 12 1021.5 - 0.2 - - - - - - -
29/05:30pm 23.3 ESE 9 10 1021.4 - 0.2 - - - - - - -
29/05:00pm 23.6 ESE 10 12 1021.1 - 0.2 - - - - - - -
29/04:30pm 23.9 ESE 11 12 1020.9 - 0.2 - - - - - - -
29/04:00pm 24.0 ESE 13 15 1020.6 - 0.2 - - - - - - -
29/03:30pm 25.6 ESE 11 13 1020.7 - 0.2 - - - - - - -
29/03:00pm 24.8 ESE 11 14 1020.6 - 0.2 - - - - - - -
29/02:30pm 25.4 ESE 9 11 1020.8 - 0.2 - - - - - - -
29/02:00pm 25.9 SE 10 11 1020.9 - 0.2 - - - - - - -
29/01:30pm 26.6 SE 10 11 1021.0 - 0.2 - - - - - - -
29/01:00pm 26.3 ESE 8 10 1021.1 - 0.2 - - - - - - -
29/12:30pm 26.2 SSE 10 12 1021.6 - 0.2 - - - - - - -
29/12:00pm 26.4 SE 10 11 1022.1 - 0.2 - - - - - - -
29/11:30am 26.1 SE 10 13 1022.5 - 0.2 - - - - - - -
29/11:00am 25.9 SSE 11 14 1023.3 - 0.2 - - - - - - -
29/10:30am 25.2 SSE 11 14 1023.8 - 0.2 - - - - - - -
29/10:00am 25.0 SSE 11 13 1024.1 - 0.0 - - - - - - -
29/09:30am 23.0 S 5 7 1024.2 - 0.0 - - - - - - -
29/09:00am 21.6 SSW 6 10 1024.2 - - - - - - - - -
29/08:30am 21.7 S 7 10 1024.2 - - - - - - - - -
29/08:00am 21.1 SSW 6 8 1024.1 - - - - - - - - -
29/07:30am 20.4 SSW 6 7 1023.6 - - - - - - - - -
29/07:00am 19.9 SSW 6 8 1023.4 - - - - - - - - -
29/06:30am 19.2 SSW 8 10 1023.2 - - - - - - - - -
29/06:00am 18.7 SSW 7 9 1023.0 - - - - - - - - -
29/05:30am 18.4 S 7 8 1022.6 - - - - - - - - -
29/05:00am 18.6 SSW 6 8 1022.3 - 0.0 - - - - - - -
29/04:30am 18.7 SSW 5 6 1022.3 - 0.0 - - - - - - -
29/04:00am 19.0 SSW 7 9 1022.1 - 0.0 - - - - - - -
29/03:30am 19.1 SSW 7 8 1022.1 - 0.0 - - - - - - -
29/03:00am 19.0 SSW 6 8 1022.4 - 0.0 - - - - - - -
29/02:30am 19.1 SSW 6 8 1022.6 - 0.0 - - - - - - -
29/02:00am 19.1 SSW 6 8 1022.6 - 0.0 - - - - - - -
29/01:30am 19.1 SSW 6 7 1023.0 - 0.0 - - - - - - -
29/01:00am 19.4 SSW 5 6 1023.2 - 0.0 - - - - - - -
29/12:30am 19.9 SSW 6 8 1023.3 - 0.0 - - - - - - -
29/12:00am 20.4 S 6 8 1023.3 - 0.0 - - - - - - -
 
Date/Time
EST
Temp

°C
Wind Pressure Rain
since 9am
mm
Weather Cloud Vis
km
Sea
Height
m
Swell
Dir
 
Speed
knots
Gust
knots
hPa Trend Height
m
Period
s
Dir
28/11:30pm 20.8 SE 7 11 1023.6 - 0.0 - - - - - - -
28/11:00pm 22.4 ESE 9 10 1023.9 - 0.0 - - - - - - -
28/10:30pm 23.0 ESE 11 14 1023.8 - 0.0 - - - - - - -
28/10:00pm 23.0 ESE 12 13 1023.9 - 0.0 - - - - - - -
28/09:30pm 23.0 ESE 13 16 1023.8 - 0.0 - - - - - - -
28/09:00pm 23.0 ESE 14 16 1023.8 - 0.0 - - - - - - -
28/08:30pm 23.0 ESE 11 14 1023.7 - 0.0 - - - - - - -
28/08:00pm 23.4 ESE 13 14 1023.6 - 0.0 - - - - - - -
28/07:30pm 23.2 ESE 10 12 1023.4 - 0.0 - - - - - - -
28/07:00pm 23.2 ESE 11 14 1023.2 - 0.0 - - - - - - -
28/06:30pm 23.0 SE 11 14 1022.9 - 0.0 - - - - - - -
28/06:00pm 23.1 ESE 10 12 1022.7 - 0.0 - - - - - - -
28/05:30pm 23.2 ESE 11 13 1022.5 - 0.0 - - - - - - -
28/05:00pm 23.3 ESE 11 14 1022.3 - 0.0 - - - - - - -
28/04:30pm 24.2 ESE 11 12 1022.2 - 0.0 - - - - - - -
28/04:00pm 24.7 ESE 12 14 1022.2 - 0.0 - - - - - - -
28/03:30pm 25.3 ESE 13 15 1022.0 - 0.0 - - - - - - -
28/03:00pm 25.4 ESE 13 15 1022.0 - 0.0 - - - - - - -
28/02:30pm 25.8 ESE 12 14 1021.9 - 0.0 - - - - - - -
28/02:00pm 26.3 ESE 12 14 1022.0 - 0.0 - - - - - - -
28/01:30pm 25.4 ESE 11 14 1022.0 - 0.0 - - - - - - -
28/01:00pm 25.7 ESE 13 15 1022.3 - 0.0 - - - - - - -
28/12:30pm 26.3 SE 11 14 1022.6 - 0.0 - - - - - - -
28/12:00pm 26.2 SSE 11 14 1023.0 - 0.0 - - - - - - -
28/11:30am 25.0 SSE 12 14 1023.3 - 0.0 - - - - - - -
28/11:00am 25.8 SSE 12 14 1023.8 - 0.0 - - - - - - -
28/10:30am 23.8 SSE 13 17 1024.0 - 0.0 - - - - - - -
28/10:00am 24.8 SE 12 15 1024.0 - 0.0 - - - - - - -
28/09:30am 23.9 SSE 12 15 1024.1 - 0.0 - - - - - - -
28/09:00am 23.4 SSE 13 16 1024.2 - 1.6 - - - - - - -
28/08:30am 22.4 SSE 13 15 1023.9 - 1.6 - - - - - - -
28/08:00am 22.2 SSE 13 16 1023.7 - 1.6 - - - - - - -
28/07:30am 21.3 SSE 14 16 1023.5 - 1.6 - - - - - - -
28/07:00am 20.5 SSE 11 14 1023.1 - 1.6 - - - - - - -
28/06:30am 19.7 S 10 13 1023.0 - 1.6 - - - - - - -
28/06:00am 19.0 S 8 10 1022.8 - 1.6 - - - - - - -
28/05:30am 19.5 SSW 6 10 1022.7 - 1.6 - - - - - - -
28/05:00am 19.5 S 7 10 1022.4 - 1.6 - - - - - - -
28/04:30am 19.4 SSW 7 10 1022.3 - 1.4 - - - - - - -
28/04:00am 19.2 S 8 10 1022.2 - 1.4 - - - - - - -
28/03:30am 19.2 S 8 10 1022.2 - 1.4 - - - - - - -
28/03:00am 19.4 S 8 11 1022.2 - 1.4 Recent precip. - - - - - -
28/02:30am 20.3 SSE 14 18 1022.4 - 1.2 - - - - - - -
28/02:00am 19.6 S 11 15 1022.6 - 1.2 - - - - - - -
28/01:30am 18.9 S 8 10 1022.8 - 1.2 - - - - - - -
28/01:00am 19.0 S 7 9 1023.0 - 1.0 - - - - - - -
28/12:30am 19.4 SSW 7 9 1023.1 - 1.0 - - - - - - -
28/12:00am 19.6 SSW 7 9 1023.2 - 1.0 - - - - - - -
 
Date/Time
EST
Temp

°C
Wind Pressure Rain
since 9am
mm
Weather Cloud Vis
km
Sea
Height
m
Swell
Dir
 
Speed
knots
Gust
knots
hPa Trend Height
m
Period
s
Dir
27/11:30pm 19.6 S 8 12 1023.2 - 1.0 - - - - - - -

Other Formats:

Comma delimited format used in spreadsheet applications
http://www.bom.gov.au/fwo/IDQ60701/IDQ60701.94580.axf

JavaScript Object Notation format (JSON) in row-major order
http://www.bom.gov.au/fwo/IDQ60701/IDQ60701.94580.json